sensor_id;sensor_type;location;lat;lon;timestamp;P1;durP1;ratioP1;P2;durP2;ratioP2
20861;SDS011;10591;52.532;13.348;2023-10-19T00:01:18;18.53;;;13.10;;
20861;SDS011;10591;52.532;13.348;2023-10-19T00:03:51;18.13;;;13.13;;
20861;SDS011;10591;52.532;13.348;2023-10-19T00:06:25;20.93;;;13.60;;
20861;SDS011;10591;52.532;13.348;2023-10-19T00:08:56;19.73;;;13.47;;
20861;SDS011;10591;52.532;13.348;2023-10-19T00:11:28;19.73;;;13.60;;
20861;SDS011;10591;52.532;13.348;2023-10-19T00:14:00;17.42;;;13.55;;
20861;SDS011;10591;52.532;13.348;2023-10-19T00:16:32;18.50;;;13.30;;
20861;SDS011;10591;52.532;13.348;2023-10-19T00:19:05;18.77;;;13.80;;
20861;SDS011;10591;52.532;13.348;2023-10-19T00:21:35;19.33;;;13.93;;
20861;SDS011;10591;52.532;13.348;2023-10-19T00:24:22;17.67;;;12.80;;
20861;SDS011;10591;52.532;13.348;2023-10-19T00:26:53;18.80;;;13.23;;
20861;SDS011;10591;52.532;13.348;2023-10-19T00:29:24;17.30;;;12.95;;
20861;SDS011;10591;52.532;13.348;2023-10-19T00:32:01;20.27;;;14.17;;
20861;SDS011;10591;52.532;13.348;2023-10-19T00:34:32;19.97;;;13.57;;
20861;SDS011;10591;52.532;13.348;2023-10-19T00:37:03;18.57;;;13.67;;
20861;SDS011;10591;52.532;13.348;2023-10-19T00:39:35;18.43;;;13.53;;
20861;SDS011;10591;52.532;13.348;2023-10-19T00:42:08;18.17;;;13.30;;
20861;SDS011;10591;52.532;13.348;2023-10-19T00:44:41;17.47;;;13.20;;
20861;SDS011;10591;52.532;13.348;2023-10-19T00:47:15;22.33;;;13.87;;
20861;SDS011;10591;52.532;13.348;2023-10-19T00:49:47;20.08;;;13.08;;
20861;SDS011;10591;52.532;13.348;2023-10-19T00:52:27;19.37;;;12.80;;
20861;SDS011;10591;52.532;13.348;2023-10-19T00:54:59;17.47;;;13.67;;
20861;SDS011;10591;52.532;13.348;2023-10-19T00:57:33;16.57;;;12.67;;
20861;SDS011;10591;52.532;13.348;2023-10-19T01:00:06;18.37;;;13.43;;
20861;SDS011;10591;52.532;13.348;2023-10-19T01:02:42;19.10;;;14.30;;
20861;SDS011;10591;52.532;13.348;2023-10-19T01:05:14;21.60;;;14.57;;
20861;SDS011;10591;52.532;13.348;2023-10-19T01:07:46;21.07;;;14.20;;
20861;SDS011;10591;52.532;13.348;2023-10-19T01:10:20;19.93;;;14.40;;
20861;SDS011;10591;52.532;13.348;2023-10-19T01:12:52;23.05;;;14.15;;
20861;SDS011;10591;52.532;13.348;2023-10-19T01:15:22;22.20;;;14.63;;
20861;SDS011;10591;52.532;13.348;2023-10-19T01:17:55;21.30;;;14.97;;
20861;SDS011;10591;52.532;13.348;2023-10-19T01:20:28;21.17;;;14.50;;
20861;SDS011;10591;52.532;13.348;2023-10-19T01:25:50;23.83;;;14.07;;
20861;SDS011;10591;52.532;13.348;2023-10-19T01:28:24;16.83;;;13.17;;
20861;SDS011;10591;52.532;13.348;2023-10-19T01:31:22;20.43;;;14.17;;
20861;SDS011;10591;52.532;13.348;2023-10-19T01:34:00;20.47;;;14.63;;
20861;SDS011;10591;52.532;13.348;2023-10-19T01:36:34;21.87;;;14.30;;
20861;SDS011;10591;52.532;13.348;2023-10-19T01:39:12;20.27;;;13.93;;
20861;SDS011;10591;52.532;13.348;2023-10-19T01:41:42;17.90;;;14.00;;
20861;SDS011;10591;52.532;13.348;2023-10-19T01:44:13;18.30;;;14.30;;
20861;SDS011;10591;52.532;13.348;2023-10-19T01:46:44;21.03;;;14.67;;
20861;SDS011;10591;52.532;13.348;2023-10-19T01:49:15;19.13;;;14.67;;
20861;SDS011;10591;52.532;13.348;2023-10-19T01:51:49;19.63;;;14.63;;
20861;SDS011;10591;52.532;13.348;2023-10-19T01:54:20;20.47;;;15.40;;
20861;SDS011;10591;52.532;13.348;2023-10-19T01:56:55;21.60;;;14.67;;
20861;SDS011;10591;52.532;13.348;2023-10-19T01:59:28;20.17;;;14.20;;
20861;SDS011;10591;52.532;13.348;2023-10-19T02:01:59;18.80;;;14.77;;
20861;SDS011;10591;52.532;13.348;2023-10-19T02:04:31;21.87;;;14.67;;
20861;SDS011;10591;52.532;13.348;2023-10-19T02:07:03;20.57;;;14.83;;
20861;SDS011;10591;52.532;13.348;2023-10-19T02:09:36;22.43;;;15.60;;
20861;SDS011;10591;52.532;13.348;2023-10-19T02:12:08;21.80;;;15.40;;
20861;SDS011;10591;52.532;13.348;2023-10-19T02:14:39;20.90;;;14.47;;
20861;SDS011;10591;52.532;13.348;2023-10-19T02:17:10;21.23;;;14.87;;
20861;SDS011;10591;52.532;13.348;2023-10-19T02:19:41;20.45;;;14.83;;
20861;SDS011;10591;52.532;13.348;2023-10-19T02:22:12;19.53;;;14.00;;
20861;SDS011;10591;52.532;13.348;2023-10-19T02:24:43;20.87;;;14.83;;
20861;SDS011;10591;52.532;13.348;2023-10-19T02:27:14;20.97;;;15.50;;
20861;SDS011;10591;52.532;13.348;2023-10-19T02:29:47;21.00;;;14.40;;
20861;SDS011;10591;52.532;13.348;2023-10-19T02:32:19;19.80;;;14.60;;
20861;SDS011;10591;52.532;13.348;2023-10-19T02:34:51;19.23;;;14.87;;
20861;SDS011;10591;52.532;13.348;2023-10-19T02:37:22;20.10;;;14.65;;
20861;SDS011;10591;52.532;13.348;2023-10-19T02:39:54;21.70;;;14.77;;
20861;SDS011;10591;52.532;13.348;2023-10-19T02:42:24;20.60;;;15.90;;
20861;SDS011;10591;52.532;13.348;2023-10-19T02:44:55;22.50;;;15.17;;
20861;SDS011;10591;52.532;13.348;2023-10-19T02:47:26;24.17;;;15.07;;
20861;SDS011;10591;52.532;13.348;2023-10-19T02:49:58;22.23;;;15.50;;
20861;SDS011;10591;52.532;13.348;2023-10-19T02:52:30;22.57;;;15.13;;
20861;SDS011;10591;52.532;13.348;2023-10-19T02:55:03;20.43;;;14.87;;
20861;SDS011;10591;52.532;13.348;2023-10-19T02:57:36;21.13;;;15.63;;
20861;SDS011;10591;52.532;13.348;2023-10-19T03:00:07;21.70;;;15.73;;
20861;SDS011;10591;52.532;13.348;2023-10-19T03:02:42;20.63;;;15.07;;
20861;SDS011;10591;52.532;13.348;2023-10-19T03:05:13;20.13;;;15.17;;
20861;SDS011;10591;52.532;13.348;2023-10-19T03:07:45;25.63;;;15.73;;
20861;SDS011;10591;52.532;13.348;2023-10-19T03:10:16;19.93;;;16.00;;
20861;SDS011;10591;52.532;13.348;2023-10-19T03:12:54;22.90;;;16.23;;
20861;SDS011;10591;52.532;13.348;2023-10-19T03:15:26;20.30;;;15.13;;
20861;SDS011;10591;52.532;13.348;2023-10-19T03:17:59;24.17;;;16.33;;
20861;SDS011;10591;52.532;13.348;2023-10-19T03:20:30;24.67;;;15.53;;
20861;SDS011;10591;52.532;13.348;2023-10-19T03:23:04;19.87;;;14.93;;
20861;SDS011;10591;52.532;13.348;2023-10-19T03:25:34;22.50;;;15.40;;
20861;SDS011;10591;52.532;13.348;2023-10-19T03:28:24;21.67;;;15.27;;
20861;SDS011;10591;52.532;13.348;2023-10-19T03:30:55;21.43;;;14.73;;
20861;SDS011;10591;52.532;13.348;2023-10-19T03:33:28;22.60;;;15.90;;
20861;SDS011;10591;52.532;13.348;2023-10-19T03:35:59;23.30;;;15.40;;
20861;SDS011;10591;52.532;13.348;2023-10-19T03:38:30;20.57;;;15.87;;
20861;SDS011;10591;52.532;13.348;2023-10-19T03:41:02;22.67;;;15.10;;
20861;SDS011;10591;52.532;13.348;2023-10-19T03:43:34;22.77;;;16.53;;
20861;SDS011;10591;52.532;13.348;2023-10-19T03:46:07;23.07;;;16.20;;
20861;SDS011;10591;52.532;13.348;2023-10-19T03:48:45;22.80;;;16.33;;
20861;SDS011;10591;52.532;13.348;2023-10-19T03:51:16;23.07;;;16.37;;
20861;SDS011;10591;52.532;13.348;2023-10-19T03:53:47;24.80;;;16.03;;
20861;SDS011;10591;52.532;13.348;2023-10-19T03:56:22;23.13;;;16.47;;
20861;SDS011;10591;52.532;13.348;2023-10-19T03:58:53;25.87;;;16.97;;
20861;SDS011;10591;52.532;13.348;2023-10-19T04:01:26;26.10;;;16.50;;
20861;SDS011;10591;52.532;13.348;2023-10-19T04:03:57;24.40;;;16.83;;
20861;SDS011;10591;52.532;13.348;2023-10-19T04:06:29;23.50;;;16.83;;
20861;SDS011;10591;52.532;13.348;2023-10-19T04:09:00;24.50;;;16.80;;
20861;SDS011;10591;52.532;13.348;2023-10-19T04:11:32;23.50;;;17.17;;
20861;SDS011;10591;52.532;13.348;2023-10-19T04:14:05;21.00;;;16.13;;
20861;SDS011;10591;52.532;13.348;2023-10-19T04:16:37;23.60;;;15.97;;
20861;SDS011;10591;52.532;13.348;2023-10-19T04:19:11;25.37;;;17.37;;
20861;SDS011;10591;52.532;13.348;2023-10-19T04:21:43;22.80;;;17.00;;
20861;SDS011;10591;52.532;13.348;2023-10-19T04:24:15;22.27;;;16.57;;
20861;SDS011;10591;52.532;13.348;2023-10-19T04:26:47;24.30;;;16.97;;
20861;SDS011;10591;52.532;13.348;2023-10-19T04:29:19;24.90;;;16.43;;
20861;SDS011;10591;52.532;13.348;2023-10-19T04:31:51;21.70;;;15.83;;
20861;SDS011;10591;52.532;13.348;2023-10-19T04:34:25;24.40;;;16.97;;
20861;SDS011;10591;52.532;13.348;2023-10-19T04:36:56;24.37;;;16.53;;
20861;SDS011;10591;52.532;13.348;2023-10-19T04:39:27;22.70;;;17.30;;
20861;SDS011;10591;52.532;13.348;2023-10-19T04:41:59;25.93;;;17.10;;
20861;SDS011;10591;52.532;13.348;2023-10-19T04:44:30;26.67;;;16.87;;
20861;SDS011;10591;52.532;13.348;2023-10-19T04:47:03;25.60;;;16.83;;
20861;SDS011;10591;52.532;13.348;2023-10-19T04:49:34;26.63;;;17.00;;
20861;SDS011;10591;52.532;13.348;2023-10-19T04:52:04;21.00;;;16.97;;
20861;SDS011;10591;52.532;13.348;2023-10-19T04:54:35;25.67;;;17.30;;
20861;SDS011;10591;52.532;13.348;2023-10-19T04:57:06;25.47;;;17.67;;
20861;SDS011;10591;52.532;13.348;2023-10-19T04:59:36;25.90;;;17.60;;
20861;SDS011;10591;52.532;13.348;2023-10-19T05:02:07;25.60;;;17.87;;
20861;SDS011;10591;52.532;13.348;2023-10-19T05:04:39;24.67;;;18.10;;
20861;SDS011;10591;52.532;13.348;2023-10-19T05:07:13;24.53;;;17.43;;
20861;SDS011;10591;52.532;13.348;2023-10-19T05:09:47;28.20;;;18.10;;
20861;SDS011;10591;52.532;13.348;2023-10-19T05:12:18;23.77;;;16.80;;
20861;SDS011;10591;52.532;13.348;2023-10-19T05:14:48;25.33;;;17.80;;
20861;SDS011;10591;52.532;13.348;2023-10-19T05:17:19;25.90;;;18.00;;
20861;SDS011;10591;52.532;13.348;2023-10-19T05:19:50;29.23;;;18.43;;
20861;SDS011;10591;52.532;13.348;2023-10-19T05:22:24;28.07;;;18.93;;
20861;SDS011;10591;52.532;13.348;2023-10-19T05:24:57;26.60;;;18.30;;
20861;SDS011;10591;52.532;13.348;2023-10-19T05:27:27;26.57;;;18.33;;
20861;SDS011;10591;52.532;13.348;2023-10-19T05:29:59;26.47;;;19.27;;
20861;SDS011;10591;52.532;13.348;2023-10-19T05:32:31;27.53;;;19.00;;
20861;SDS011;10591;52.532;13.348;2023-10-19T05:35:02;28.33;;;19.00;;
20861;SDS011;10591;52.532;13.348;2023-10-19T05:37:33;30.13;;;19.60;;
20861;SDS011;10591;52.532;13.348;2023-10-19T05:40:06;27.60;;;18.30;;
20861;SDS011;10591;52.532;13.348;2023-10-19T05:42:40;27.57;;;19.37;;
20861;SDS011;10591;52.532;13.348;2023-10-19T05:45:10;31.97;;;20.23;;
20861;SDS011;10591;52.532;13.348;2023-10-19T05:47:48;29.37;;;19.63;;
20861;SDS011;10591;52.532;13.348;2023-10-19T05:50:20;27.10;;;18.67;;
20861;SDS011;10591;52.532;13.348;2023-10-19T05:52:51;29.23;;;20.00;;
20861;SDS011;10591;52.532;13.348;2023-10-19T05:55:23;27.83;;;19.40;;
20861;SDS011;10591;52.532;13.348;2023-10-19T05:57:55;28.10;;;19.93;;
20861;SDS011;10591;52.532;13.348;2023-10-19T06:00:26;26.67;;;19.30;;
20861;SDS011;10591;52.532;13.348;2023-10-19T06:02:58;31.83;;;21.13;;
20861;SDS011;10591;52.532;13.348;2023-10-19T06:05:29;26.83;;;19.20;;
20861;SDS011;10591;52.532;13.348;2023-10-19T06:08:00;28.47;;;19.37;;
20861;SDS011;10591;52.532;13.348;2023-10-19T06:10:33;28.20;;;19.63;;
20861;SDS011;10591;52.532;13.348;2023-10-19T06:13:03;30.60;;;20.83;;
20861;SDS011;10591;52.532;13.348;2023-10-19T06:15:35;29.48;;;21.35;;
20861;SDS011;10591;52.532;13.348;2023-10-19T06:18:09;27.77;;;20.13;;
20861;SDS011;10591;52.532;13.348;2023-10-19T06:20:44;29.13;;;20.33;;
20861;SDS011;10591;52.532;13.348;2023-10-19T06:23:15;28.70;;;20.37;;
20861;SDS011;10591;52.532;13.348;2023-10-19T06:25:46;32.90;;;21.90;;
20861;SDS011;10591;52.532;13.348;2023-10-19T06:28:19;29.83;;;21.00;;
20861;SDS011;10591;52.532;13.348;2023-10-19T06:30:52;32.00;;;21.13;;
20861;SDS011;10591;52.532;13.348;2023-10-19T06:33:22;31.70;;;21.10;;
20861;SDS011;10591;52.532;13.348;2023-10-19T06:35:53;33.63;;;21.17;;
20861;SDS011;10591;52.532;13.348;2023-10-19T06:38:24;33.47;;;20.53;;
20861;SDS011;10591;52.532;13.348;2023-10-19T06:40:55;30.37;;;21.83;;
20861;SDS011;10591;52.532;13.348;2023-10-19T06:43:26;32.87;;;22.03;;
20861;SDS011;10591;52.532;13.348;2023-10-19T06:46:00;31.03;;;21.20;;
20861;SDS011;10591;52.532;13.348;2023-10-19T06:48:30;30.77;;;21.97;;
20861;SDS011;10591;52.532;13.348;2023-10-19T06:51:02;29.10;;;21.23;;
20861;SDS011;10591;52.532;13.348;2023-10-19T06:53:32;30.37;;;21.53;;
20861;SDS011;10591;52.532;13.348;2023-10-19T06:56:05;32.20;;;21.60;;
20861;SDS011;10591;52.532;13.348;2023-10-19T06:58:36;33.40;;;21.80;;
20861;SDS011;10591;52.532;13.348;2023-10-19T07:01:07;31.70;;;21.67;;
20861;SDS011;10591;52.532;13.348;2023-10-19T07:03:38;33.87;;;22.40;;
20861;SDS011;10591;52.532;13.348;2023-10-19T07:06:09;32.63;;;21.13;;
20861;SDS011;10591;52.532;13.348;2023-10-19T07:08:43;29.53;;;21.33;;
20861;SDS011;10591;52.532;13.348;2023-10-19T07:11:14;32.40;;;21.57;;
20861;SDS011;10591;52.532;13.348;2023-10-19T07:13:44;30.13;;;20.73;;
20861;SDS011;10591;52.532;13.348;2023-10-19T07:16:15;30.93;;;20.67;;
20861;SDS011;10591;52.532;13.348;2023-10-19T07:18:47;29.43;;;21.57;;
20861;SDS011;10591;52.532;13.348;2023-10-19T07:21:19;30.23;;;20.17;;
20861;SDS011;10591;52.532;13.348;2023-10-19T07:23:50;30.77;;;21.20;;
20861;SDS011;10591;52.532;13.348;2023-10-19T07:26:23;35.55;;;21.95;;
20861;SDS011;10591;52.532;13.348;2023-10-19T07:28:56;29.80;;;20.60;;
20861;SDS011;10591;52.532;13.348;2023-10-19T07:31:26;30.27;;;19.90;;
20861;SDS011;10591;52.532;13.348;2023-10-19T07:33:57;28.77;;;19.50;;
20861;SDS011;10591;52.532;13.348;2023-10-19T07:36:28;27.50;;;19.97;;
20861;SDS011;10591;52.532;13.348;2023-10-19T07:39:00;27.70;;;19.90;;
20861;SDS011;10591;52.532;13.348;2023-10-19T07:41:31;28.97;;;20.80;;
20861;SDS011;10591;52.532;13.348;2023-10-19T07:44:03;27.50;;;20.37;;
20861;SDS011;10591;52.532;13.348;2023-10-19T07:46:34;29.33;;;20.83;;
20861;SDS011;10591;52.532;13.348;2023-10-19T07:49:05;28.38;;;19.87;;
20861;SDS011;10591;52.532;13.348;2023-10-19T07:51:37;27.90;;;19.32;;
20861;SDS011;10591;52.532;13.348;2023-10-19T07:54:08;24.97;;;18.83;;
20861;SDS011;10591;52.532;13.348;2023-10-19T07:56:38;29.80;;;19.82;;
20861;SDS011;10591;52.532;13.348;2023-10-19T07:59:09;29.33;;;19.80;;
20861;SDS011;10591;52.532;13.348;2023-10-19T08:01:41;30.13;;;19.87;;
20861;SDS011;10591;52.532;13.348;2023-10-19T08:04:12;28.60;;;19.50;;
20861;SDS011;10591;52.532;13.348;2023-10-19T08:06:42;27.73;;;18.92;;
20861;SDS011;10591;52.532;13.348;2023-10-19T08:09:13;29.45;;;19.48;;
20861;SDS011;10591;52.532;13.348;2023-10-19T08:11:48;27.27;;;19.90;;
20861;SDS011;10591;52.532;13.348;2023-10-19T08:14:22;27.22;;;19.37;;
20861;SDS011;10591;52.532;13.348;2023-10-19T08:16:53;29.90;;;18.93;;
20861;SDS011;10591;52.532;13.348;2023-10-19T08:19:27;26.00;;;18.43;;
20861;SDS011;10591;52.532;13.348;2023-10-19T08:22:00;23.53;;;19.50;;
20861;SDS011;10591;52.532;13.348;2023-10-19T08:24:31;26.00;;;18.47;;
20861;SDS011;10591;52.532;13.348;2023-10-19T08:27:03;28.07;;;19.33;;
20861;SDS011;10591;52.532;13.348;2023-10-19T08:29:34;25.57;;;18.93;;
20861;SDS011;10591;52.532;13.348;2023-10-19T08:32:05;25.47;;;18.27;;
20861;SDS011;10591;52.532;13.348;2023-10-19T08:34:37;26.65;;;18.67;;
20861;SDS011;10591;52.532;13.348;2023-10-19T08:37:08;29.10;;;18.47;;
20861;SDS011;10591;52.532;13.348;2023-10-19T08:39:39;28.23;;;19.90;;
20861;SDS011;10591;52.532;13.348;2023-10-19T08:42:12;25.70;;;18.67;;
20861;SDS011;10591;52.532;13.348;2023-10-19T08:44:43;27.57;;;17.93;;
20861;SDS011;10591;52.532;13.348;2023-10-19T08:47:14;33.50;;;20.82;;
20861;SDS011;10591;52.532;13.348;2023-10-19T08:49:45;26.90;;;19.20;;
20861;SDS011;10591;52.532;13.348;2023-10-19T08:52:16;28.37;;;19.57;;
20861;SDS011;10591;52.532;13.348;2023-10-19T08:54:51;25.87;;;19.23;;
20861;SDS011;10591;52.532;13.348;2023-10-19T08:57:22;25.70;;;18.77;;
20861;SDS011;10591;52.532;13.348;2023-10-19T08:59:53;25.17;;;18.20;;
20861;SDS011;10591;52.532;13.348;2023-10-19T09:02:25;26.63;;;19.27;;
20861;SDS011;10591;52.532;13.348;2023-10-19T09:04:56;24.77;;;19.13;;
20861;SDS011;10591;52.532;13.348;2023-10-19T09:07:28;26.07;;;18.15;;
20861;SDS011;10591;52.532;13.348;2023-10-19T09:09:59;27.93;;;18.87;;
20861;SDS011;10591;52.532;13.348;2023-10-19T09:12:33;26.13;;;17.67;;
20861;SDS011;10591;52.532;13.348;2023-10-19T09:15:03;24.93;;;18.67;;
20861;SDS011;10591;52.532;13.348;2023-10-19T09:17:36;26.03;;;19.13;;
20861;SDS011;10591;52.532;13.348;2023-10-19T09:20:09;29.13;;;19.93;;
20861;SDS011;10591;52.532;13.348;2023-10-19T09:22:41;27.73;;;19.77;;
20861;SDS011;10591;52.532;13.348;2023-10-19T09:25:14;25.68;;;18.65;;
20861;SDS011;10591;52.532;13.348;2023-10-19T09:27:46;25.70;;;18.85;;
20861;SDS011;10591;52.532;13.348;2023-10-19T09:30:17;25.20;;;19.10;;
20861;SDS011;10591;52.532;13.348;2023-10-19T09:32:51;23.20;;;18.17;;
20861;SDS011;10591;52.532;13.348;2023-10-19T09:35:24;25.97;;;18.57;;
20861;SDS011;10591;52.532;13.348;2023-10-19T09:37:58;27.50;;;19.03;;
20861;SDS011;10591;52.532;13.348;2023-10-19T09:40:30;26.80;;;18.97;;
20861;SDS011;10591;52.532;13.348;2023-10-19T09:43:04;22.95;;;16.70;;
20861;SDS011;10591;52.532;13.348;2023-10-19T09:45:37;27.23;;;19.07;;
20861;SDS011;10591;52.532;13.348;2023-10-19T09:48:10;26.87;;;19.10;;
20861;SDS011;10591;52.532;13.348;2023-10-19T09:50:44;25.68;;;17.82;;
20861;SDS011;10591;52.532;13.348;2023-10-19T09:53:17;24.15;;;17.70;;
20861;SDS011;10591;52.532;13.348;2023-10-19T09:55:48;26.53;;;19.23;;
20861;SDS011;10591;52.532;13.348;2023-10-19T09:58:27;27.40;;;19.25;;
20861;SDS011;10591;52.532;13.348;2023-10-19T10:01:00;25.50;;;18.23;;
20861;SDS011;10591;52.532;13.348;2023-10-19T10:03:42;23.87;;;18.23;;
20861;SDS011;10591;52.532;13.348;2023-10-19T10:06:26;25.50;;;18.70;;
20861;SDS011;10591;52.532;13.348;2023-10-19T10:09:07;22.58;;;18.17;;
20861;SDS011;10591;52.532;13.348;2023-10-19T10:11:40;26.40;;;19.20;;
20861;SDS011;10591;52.532;13.348;2023-10-19T10:14:19;27.48;;;18.70;;
20861;SDS011;10591;52.532;13.348;2023-10-19T10:16:47;23.83;;;18.73;;
20861;SDS011;10591;52.532;13.348;2023-10-19T10:19:20;25.87;;;18.70;;
20861;SDS011;10591;52.532;13.348;2023-10-19T10:22:08;25.52;;;19.42;;
20861;SDS011;10591;52.532;13.348;2023-10-19T10:24:44;25.65;;;18.07;;
20861;SDS011;10591;52.532;13.348;2023-10-19T10:27:18;26.07;;;18.93;;
20861;SDS011;10591;52.532;13.348;2023-10-19T10:29:55;23.37;;;18.37;;
20861;SDS011;10591;52.532;13.348;2023-10-19T10:32:45;27.05;;;19.15;;
20861;SDS011;10591;52.532;13.348;2023-10-19T10:38:10;26.87;;;19.07;;
20861;SDS011;10591;52.532;13.348;2023-10-19T10:40:43;28.98;;;20.40;;
20861;SDS011;10591;52.532;13.348;2023-10-19T10:43:18;29.27;;;20.53;;
20861;SDS011;10591;52.532;13.348;2023-10-19T10:45:50;31.73;;;21.67;;
20861;SDS011;10591;52.532;13.348;2023-10-19T10:48:21;30.27;;;22.30;;
20861;SDS011;10591;52.532;13.348;2023-10-19T10:50:52;31.55;;;21.52;;
20861;SDS011;10591;52.532;13.348;2023-10-19T10:53:24;36.80;;;23.20;;
20861;SDS011;10591;52.532;13.348;2023-10-19T10:55:57;34.33;;;24.20;;
20861;SDS011;10591;52.532;13.348;2023-10-19T10:58:30;33.38;;;24.52;;
20861;SDS011;10591;52.532;13.348;2023-10-19T11:01:00;36.97;;;24.50;;
20861;SDS011;10591;52.532;13.348;2023-10-19T11:03:31;34.87;;;24.00;;
20861;SDS011;10591;52.532;13.348;2023-10-19T11:06:03;44.80;;;25.83;;
20861;SDS011;10591;52.532;13.348;2023-10-19T11:08:36;36.20;;;26.07;;
20861;SDS011;10591;52.532;13.348;2023-10-19T11:11:08;34.77;;;24.33;;
20861;SDS011;10591;52.532;13.348;2023-10-19T11:13:42;35.50;;;25.27;;
20861;SDS011;10591;52.532;13.348;2023-10-19T11:16:21;35.53;;;24.97;;
20861;SDS011;10591;52.532;13.348;2023-10-19T11:18:48;35.37;;;24.43;;
20861;SDS011;10591;52.532;13.348;2023-10-19T11:21:18;36.33;;;25.17;;
20861;SDS011;10591;52.532;13.348;2023-10-19T11:23:49;36.73;;;24.77;;
20861;SDS011;10591;52.532;13.348;2023-10-19T11:26:23;35.53;;;25.37;;
20861;SDS011;10591;52.532;13.348;2023-10-19T11:29:00;37.10;;;26.20;;
20861;SDS011;10591;52.532;13.348;2023-10-19T11:31:36;37.93;;;25.70;;
20861;SDS011;10591;52.532;13.348;2023-10-19T11:34:08;39.67;;;26.20;;
20861;SDS011;10591;52.532;13.348;2023-10-19T11:36:39;37.30;;;26.37;;
20861;SDS011;10591;52.532;13.348;2023-10-19T11:39:10;35.80;;;25.80;;
20861;SDS011;10591;52.532;13.348;2023-10-19T11:41:41;39.83;;;27.33;;
20861;SDS011;10591;52.532;13.348;2023-10-19T11:44:11;39.40;;;27.50;;
20861;SDS011;10591;52.532;13.348;2023-10-19T11:46:42;42.27;;;28.00;;
20861;SDS011;10591;52.532;13.348;2023-10-19T11:49:13;37.17;;;27.07;;
20861;SDS011;10591;52.532;13.348;2023-10-19T11:51:44;40.77;;;28.80;;
20861;SDS011;10591;52.532;13.348;2023-10-19T11:54:15;41.67;;;27.50;;
20861;SDS011;10591;52.532;13.348;2023-10-19T11:56:47;37.80;;;27.60;;
20861;SDS011;10591;52.532;13.348;2023-10-19T11:59:18;43.08;;;27.73;;
20861;SDS011;10591;52.532;13.348;2023-10-19T12:01:49;36.03;;;27.07;;
20861;SDS011;10591;52.532;13.348;2023-10-19T12:04:20;38.73;;;27.37;;
20861;SDS011;10591;52.532;13.348;2023-10-19T12:06:50;42.37;;;28.10;;
20861;SDS011;10591;52.532;13.348;2023-10-19T12:09:21;45.43;;;28.83;;
20861;SDS011;10591;52.532;13.348;2023-10-19T12:11:53;39.37;;;28.87;;
20861;SDS011;10591;52.532;13.348;2023-10-19T12:14:24;41.40;;;28.77;;
20861;SDS011;10591;52.532;13.348;2023-10-19T12:16:55;41.97;;;28.67;;
20861;SDS011;10591;52.532;13.348;2023-10-19T12:19:30;39.63;;;28.07;;
20861;SDS011;10591;52.532;13.348;2023-10-19T12:22:02;42.50;;;29.42;;
20861;SDS011;10591;52.532;13.348;2023-10-19T12:24:32;42.03;;;29.27;;
20861;SDS011;10591;52.532;13.348;2023-10-19T12:27:03;41.98;;;30.10;;
20861;SDS011;10591;52.532;13.348;2023-10-19T12:29:33;42.13;;;29.00;;
20861;SDS011;10591;52.532;13.348;2023-10-19T12:32:04;39.90;;;29.50;;
20861;SDS011;10591;52.532;13.348;2023-10-19T12:34:36;41.50;;;29.47;;
20861;SDS011;10591;52.532;13.348;2023-10-19T12:37:07;40.57;;;30.13;;
20861;SDS011;10591;52.532;13.348;2023-10-19T12:39:40;44.93;;;30.53;;
20861;SDS011;10591;52.532;13.348;2023-10-19T12:42:20;42.33;;;30.70;;
20861;SDS011;10591;52.532;13.348;2023-10-19T12:44:51;43.80;;;30.77;;
20861;SDS011;10591;52.532;13.348;2023-10-19T12:47:22;45.83;;;31.63;;
20861;SDS011;10591;52.532;13.348;2023-10-19T12:49:53;42.60;;;31.50;;
20861;SDS011;10591;52.532;13.348;2023-10-19T12:52:24;42.58;;;30.10;;
20861;SDS011;10591;52.532;13.348;2023-10-19T12:54:55;46.70;;;30.77;;
20861;SDS011;10591;52.532;13.348;2023-10-19T12:57:27;44.00;;;31.33;;
20861;SDS011;10591;52.532;13.348;2023-10-19T12:59:58;43.87;;;30.02;;
20861;SDS011;10591;52.532;13.348;2023-10-19T13:02:34;46.25;;;32.23;;
20861;SDS011;10591;52.532;13.348;2023-10-19T13:05:06;45.50;;;32.60;;
20861;SDS011;10591;52.532;13.348;2023-10-19T13:07:38;44.83;;;31.73;;
20861;SDS011;10591;52.532;13.348;2023-10-19T13:10:09;48.70;;;32.40;;
20861;SDS011;10591;52.532;13.348;2023-10-19T13:12:41;46.80;;;32.70;;
20861;SDS011;10591;52.532;13.348;2023-10-19T13:15:13;42.27;;;32.20;;
20861;SDS011;10591;52.532;13.348;2023-10-19T13:17:46;45.13;;;31.27;;
20861;SDS011;10591;52.532;13.348;2023-10-19T13:20:20;47.63;;;32.20;;
20861;SDS011;10591;52.532;13.348;2023-10-19T13:22:52;41.67;;;29.67;;
20861;SDS011;10591;52.532;13.348;2023-10-19T13:25:24;43.65;;;29.85;;
20861;SDS011;10591;52.532;13.348;2023-10-19T13:28:00;43.80;;;29.60;;
20861;SDS011;10591;52.532;13.348;2023-10-19T13:30:35;43.23;;;29.73;;
20861;SDS011;10591;52.532;13.348;2023-10-19T13:33:05;45.83;;;31.07;;
20861;SDS011;10591;52.532;13.348;2023-10-19T13:35:39;39.60;;;29.33;;
20861;SDS011;10591;52.532;13.348;2023-10-19T13:38:11;46.00;;;31.77;;
20861;SDS011;10591;52.532;13.348;2023-10-19T13:40:45;43.03;;;30.63;;
20861;SDS011;10591;52.532;13.348;2023-10-19T13:43:18;41.83;;;29.80;;
20861;SDS011;10591;52.532;13.348;2023-10-19T13:45:49;45.30;;;31.20;;
20861;SDS011;10591;52.532;13.348;2023-10-19T13:48:22;46.33;;;30.70;;
20861;SDS011;10591;52.532;13.348;2023-10-19T13:50:52;42.47;;;31.57;;
20861;SDS011;10591;52.532;13.348;2023-10-19T13:53:25;43.07;;;29.87;;
20861;SDS011;10591;52.532;13.348;2023-10-19T13:55:56;46.83;;;32.83;;
20861;SDS011;10591;52.532;13.348;2023-10-19T13:58:27;44.40;;;31.70;;
20861;SDS011;10591;52.532;13.348;2023-10-19T14:00:57;42.30;;;30.03;;
20861;SDS011;10591;52.532;13.348;2023-10-19T14:03:28;46.50;;;31.83;;
20861;SDS011;10591;52.532;13.348;2023-10-19T14:06:00;43.05;;;31.02;;
20861;SDS011;10591;52.532;13.348;2023-10-19T14:08:30;46.00;;;31.33;;
20861;SDS011;10591;52.532;13.348;2023-10-19T14:11:01;42.90;;;31.50;;
20861;SDS011;10591;52.532;13.348;2023-10-19T14:13:33;41.03;;;30.37;;
20861;SDS011;10591;52.532;13.348;2023-10-19T14:16:09;44.50;;;31.70;;
20861;SDS011;10591;52.532;13.348;2023-10-19T14:18:39;43.07;;;31.17;;
20861;SDS011;10591;52.532;13.348;2023-10-19T14:21:16;48.25;;;33.35;;
20861;SDS011;10591;52.532;13.348;2023-10-19T14:23:49;43.80;;;32.17;;
20861;SDS011;10591;52.532;13.348;2023-10-19T14:26:21;42.83;;;30.57;;
20861;SDS011;10591;52.532;13.348;2023-10-19T14:28:52;42.97;;;31.83;;
20861;SDS011;10591;52.532;13.348;2023-10-19T14:31:23;42.87;;;31.57;;
20861;SDS011;10591;52.532;13.348;2023-10-19T14:33:55;46.03;;;31.60;;
20861;SDS011;10591;52.532;13.348;2023-10-19T14:36:27;44.20;;;30.17;;
20861;SDS011;10591;52.532;13.348;2023-10-19T14:38:59;45.80;;;31.37;;
20861;SDS011;10591;52.532;13.348;2023-10-19T14:41:29;44.97;;;31.97;;
20861;SDS011;10591;52.532;13.348;2023-10-19T14:44:00;46.40;;;32.90;;